KGDV

Details ICAO KGDV (GDV)
Name Dawson Community
Region United States
Timezone America/Denver (UTC-6.0)
Plans Departing 1
Arriving 1
Stats Elevation 2,456 ft / 749 m (AMSL)
Location 47.139161° -104.807902°
Runways 2
Magnetic Variation 8.672° E
Sunrise 2018-05-23 11:16:00 UTC / 2018-05-23 05:16:00 Local
Sunset 2018-05-24 02:38:53 UTC / 2018-05-23 20:38:53 Local
Advertisement - Login to hide

Runways

ID Width Length Bearing (true) Bearing (mag) Surface Threshold Offset Overrun Length
02 60 ft / 18 m 2,996 ft / 913 m 36.32° 27.65° Asphalt 0 ft / 0 m 0 ft / 0 m
12 100 ft / 30 m 5,699 ft / 1,737 m 136.44° 127.77° Asphalt 0 ft / 0 m 0 ft / 0 m
20 60 ft / 18 m 2,996 ft / 913 m 216.32° 207.65° Asphalt 0 ft / 0 m 0 ft / 0 m
30 100 ft / 30 m 5,699 ft / 1,737 m 316.45° 307.78° Asphalt 0 ft / 0 m 0 ft / 0 m

Map

Weather


0- 5 10 15 20 25 30 35+ Temperature / ° C

Clouds and Precipitation
Forecast for 2018-05-23 12:00 UTC. Updated 3 hours ago

Ground ~20,000 ft ~40,000 ft Winds

METAR

KGDV 231322Z AUTO 06007KT 10SM VCTS OVC060 14/13 A2991 RMK AO2 LTG DSNT N AND NE TSE12B14E20B22

TAF

KGDV 231139Z 2312/2412 05005KT P6SM VCSH OVC070 FM231500 08007KT P6SM -SHRA BKN050 FM232100 13010KT P6SM -TSRA BKN035CB FM240000 15009KT P6SM SCT090

Frequencies

Recorded 135.07 MHz AWOS 3
Unicom 122.80 MHz CTAF/UNICOM
Warning: Do not use this data for real-world aviation or navigation. No guarantee of current accuracy is given.